sensor_id;sensor_type;location;lat;lon;timestamp;P1;durP1;ratioP1;P2;durP2;ratioP2
55362;SDS011;41244;49.242;9.060;2024-03-23T00:54:50;14.32;;;10.50;;
55362;SDS011;41244;49.242;9.060;2024-03-23T00:57:16;11.00;;;9.90;;
55362;SDS011;41244;49.242;9.060;2024-03-23T00:59:42;13.13;;;10.07;;
55362;SDS011;41244;49.242;9.060;2024-03-23T01:02:08;12.40;;;10.13;;
55362;SDS011;41244;49.242;9.060;2024-03-23T01:04:34;12.15;;;10.68;;
55362;SDS011;41244;49.242;9.060;2024-03-23T01:06:59;12.00;;;10.50;;
55362;SDS011;41244;49.242;9.060;2024-03-23T01:09:25;14.63;;;10.35;;
55362;SDS011;41244;49.242;9.060;2024-03-23T01:11:51;13.40;;;10.63;;
55362;SDS011;41244;49.242;9.060;2024-03-23T01:14:17;15.25;;;9.75;;
55362;SDS011;41244;49.242;9.060;2024-03-23T01:16:42;11.98;;;10.77;;
55362;SDS011;41244;49.242;9.060;2024-03-23T01:19:08;12.50;;;10.18;;
55362;SDS011;41244;49.242;9.060;2024-03-23T01:21:34;10.82;;;9.73;;
55362;SDS011;41244;49.242;9.060;2024-03-23T01:24:00;12.02;;;9.95;;
55362;SDS011;41244;49.242;9.060;2024-03-23T01:26:26;13.45;;;10.07;;
55362;SDS011;41244;49.242;9.060;2024-03-23T01:28:52;11.95;;;9.65;;
55362;SDS011;41244;49.242;9.060;2024-03-23T01:31:18;11.35;;;9.90;;
55362;SDS011;41244;49.242;9.060;2024-03-23T01:33:44;15.32;;;10.25;;
55362;SDS011;41244;49.242;9.060;2024-03-23T01:36:09;13.18;;;10.55;;
55362;SDS011;41244;49.242;9.060;2024-03-23T01:38:35;12.63;;;9.95;;
55362;SDS011;41244;49.242;9.060;2024-03-23T01:41:01;12.25;;;10.93;;
55362;SDS011;41244;49.242;9.060;2024-03-23T01:43:27;13.65;;;10.98;;
55362;SDS011;41244;49.242;9.060;2024-03-23T01:45:53;12.95;;;10.05;;
55362;SDS011;41244;49.242;9.060;2024-03-23T01:48:19;12.18;;;10.35;;
55362;SDS011;41244;49.242;9.060;2024-03-23T01:50:46;12.02;;;9.70;;
55362;SDS011;41244;49.242;9.060;2024-03-23T01:53:13;14.65;;;10.32;;
55362;SDS011;41244;49.242;9.060;2024-03-23T01:55:42;11.40;;;10.20;;
55362;SDS011;41244;49.242;9.060;2024-03-23T01:58:09;11.60;;;10.07;;
55362;SDS011;41244;49.242;9.060;2024-03-23T02:00:35;12.88;;;9.98;;
55362;SDS011;41244;49.242;9.060;2024-03-23T02:03:01;10.93;;;9.80;;
55362;SDS011;41244;49.242;9.060;2024-03-23T02:05:27;15.57;;;10.43;;
55362;SDS011;41244;49.242;9.060;2024-03-23T02:07:53;11.63;;;10.43;;
55362;SDS011;41244;49.242;9.060;2024-03-23T02:10:19;10.45;;;9.45;;
55362;SDS011;41244;49.242;9.060;2024-03-23T02:12:45;12.30;;;10.27;;
55362;SDS011;41244;49.242;9.060;2024-03-23T02:15:11;13.02;;;10.40;;
55362;SDS011;41244;49.242;9.060;2024-03-23T02:17:37;11.73;;;10.48;;
55362;SDS011;41244;49.242;9.060;2024-03-23T02:20:03;11.98;;;10.25;;
55362;SDS011;41244;49.242;9.060;2024-03-23T02:22:37;12.85;;;11.43;;
55362;SDS011;41244;49.242;9.060;2024-03-23T02:25:04;12.13;;;10.20;;
55362;SDS011;41244;49.242;9.060;2024-03-23T02:27:31;15.73;;;11.82;;
55362;SDS011;41244;49.242;9.060;2024-03-23T02:29:58;12.45;;;11.20;;
55362;SDS011;41244;49.242;9.060;2024-03-23T02:32:24;11.82;;;10.63;;
55362;SDS011;41244;49.242;9.060;2024-03-23T02:34:50;14.05;;;11.02;;
55362;SDS011;41244;49.242;9.060;2024-03-23T02:37:16;14.73;;;11.65;;
55362;SDS011;41244;49.242;9.060;2024-03-23T02:39:42;15.57;;;11.10;;
55362;SDS011;41244;49.242;9.060;2024-03-23T02:42:08;12.55;;;9.70;;
55362;SDS011;41244;49.242;9.060;2024-03-23T02:44:34;9.30;;;8.27;;
55362;SDS011;41244;49.242;9.060;2024-03-23T02:47:00;10.23;;;8.38;;
55362;SDS011;41244;49.242;9.060;2024-03-23T02:49:26;8.90;;;7.72;;
55362;SDS011;41244;49.242;9.060;2024-03-23T02:51:52;10.57;;;7.30;;
55362;SDS011;41244;49.242;9.060;2024-03-23T02:54:18;7.63;;;6.85;;
55362;SDS011;41244;49.242;9.060;2024-03-23T02:56:44;12.55;;;7.22;;
55362;SDS011;41244;49.242;9.060;2024-03-23T02:59:09;9.20;;;6.47;;
55362;SDS011;41244;49.242;9.060;2024-03-23T03:01:35;7.72;;;6.80;;
55362;SDS011;41244;49.242;9.060;2024-03-23T03:04:01;9.00;;;6.80;;
55362;SDS011;41244;49.242;9.060;2024-03-23T03:06:27;7.65;;;6.40;;
55362;SDS011;41244;49.242;9.060;2024-03-23T03:08:56;7.50;;;6.45;;
55362;SDS011;41244;49.242;9.060;2024-03-23T03:11:22;11.20;;;7.15;;
55362;SDS011;41244;49.242;9.060;2024-03-23T03:13:49;8.20;;;6.80;;
55362;SDS011;41244;49.242;9.060;2024-03-23T03:16:16;7.60;;;6.55;;
55362;SDS011;41244;49.242;9.060;2024-03-23T03:18:42;8.35;;;6.75;;
55362;SDS011;41244;49.242;9.060;2024-03-23T03:21:08;7.97;;;6.65;;
55362;SDS011;41244;49.242;9.060;2024-03-23T03:23:38;9.80;;;7.05;;
55362;SDS011;41244;49.242;9.060;2024-03-23T03:26:05;7.65;;;6.28;;
55362;SDS011;41244;49.242;9.060;2024-03-23T03:28:32;9.23;;;6.72;;
55362;SDS011;41244;49.242;9.060;2024-03-23T03:30:59;9.30;;;6.90;;
55362;SDS011;41244;49.242;9.060;2024-03-23T03:33:28;9.35;;;6.30;;
55362;SDS011;41244;49.242;9.060;2024-03-23T03:35:54;12.38;;;7.50;;
55362;SDS011;41244;49.242;9.060;2024-03-23T03:38:20;9.65;;;7.30;;
55362;SDS011;41244;49.242;9.060;2024-03-23T03:40:46;10.63;;;8.30;;
55362;SDS011;41244;49.242;9.060;2024-03-23T03:43:12;9.73;;;8.13;;
55362;SDS011;41244;49.242;9.060;2024-03-23T03:45:38;9.50;;;7.85;;
55362;SDS011;41244;49.242;9.060;2024-03-23T03:48:04;13.32;;;7.65;;
55362;SDS011;41244;49.242;9.060;2024-03-23T03:50:30;11.68;;;8.15;;
55362;SDS011;41244;49.242;9.060;2024-03-23T03:52:56;10.23;;;8.80;;
55362;SDS011;41244;49.242;9.060;2024-03-23T03:55:24;11.75;;;8.50;;
55362;SDS011;41244;49.242;9.060;2024-03-23T03:57:49;12.68;;;9.20;;
55362;SDS011;41244;49.242;9.060;2024-03-23T04:00:15;12.68;;;8.60;;
55362;SDS011;41244;49.242;9.060;2024-03-23T04:02:41;12.57;;;9.13;;
55362;SDS011;41244;49.242;9.060;2024-03-23T04:05:07;11.95;;;9.23;;
55362;SDS011;41244;49.242;9.060;2024-03-23T04:07:33;12.75;;;9.63;;
55362;SDS011;41244;49.242;9.060;2024-03-23T04:09:59;11.82;;;9.63;;
55362;SDS011;41244;49.242;9.060;2024-03-23T04:12:25;13.18;;;10.30;;
55362;SDS011;41244;49.242;9.060;2024-03-23T04:14:51;13.77;;;9.45;;
55362;SDS011;41244;49.242;9.060;2024-03-23T04:17:16;13.00;;;10.40;;
55362;SDS011;41244;49.242;9.060;2024-03-23T04:19:43;14.00;;;10.68;;
55362;SDS011;41244;49.242;9.060;2024-03-23T04:22:09;16.90;;;10.65;;
55362;SDS011;41244;49.242;9.060;2024-03-23T04:24:35;15.93;;;10.15;;
55362;SDS011;41244;49.242;9.060;2024-03-23T04:27:01;12.93;;;10.40;;
55362;SDS011;41244;49.242;9.060;2024-03-23T04:29:26;14.13;;;10.65;;
55362;SDS011;41244;49.242;9.060;2024-03-23T04:31:55;15.15;;;10.88;;
55362;SDS011;41244;49.242;9.060;2024-03-23T04:34:21;13.52;;;10.20;;
55362;SDS011;41244;49.242;9.060;2024-03-23T04:36:48;14.40;;;11.00;;
55362;SDS011;41244;49.242;9.060;2024-03-23T04:39:14;13.98;;;11.10;;
55362;SDS011;41244;49.242;9.060;2024-03-23T04:41:40;14.65;;;10.75;;
55362;SDS011;41244;49.242;9.060;2024-03-23T04:44:06;15.27;;;10.75;;
55362;SDS011;41244;49.242;9.060;2024-03-23T04:46:32;15.68;;;11.48;;
55362;SDS011;41244;49.242;9.060;2024-03-23T04:48:57;13.68;;;10.30;;
55362;SDS011;41244;49.242;9.060;2024-03-23T04:51:34;18.23;;;11.82;;
55362;SDS011;41244;49.242;9.060;2024-03-23T04:54:02;18.23;;;10.73;;
55362;SDS011;41244;49.242;9.060;2024-03-23T04:56:27;15.63;;;11.68;;
55362;SDS011;41244;49.242;9.060;2024-03-23T04:58:54;15.98;;;11.18;;
55362;SDS011;41244;49.242;9.060;2024-03-23T05:01:20;16.02;;;11.15;;
55362;SDS011;41244;49.242;9.060;2024-03-23T05:03:47;15.18;;;11.52;;
55362;SDS011;41244;49.242;9.060;2024-03-23T05:06:14;15.15;;;11.57;;
55362;SDS011;41244;49.242;9.060;2024-03-23T05:08:40;18.27;;;11.30;;
55362;SDS011;41244;49.242;9.060;2024-03-23T05:11:06;14.80;;;11.32;;
55362;SDS011;41244;49.242;9.060;2024-03-23T05:13:32;15.73;;;11.10;;
55362;SDS011;41244;49.242;9.060;2024-03-23T05:15:57;13.07;;;10.80;;
55362;SDS011;41244;49.242;9.060;2024-03-23T05:18:24;15.55;;;11.32;;
55362;SDS011;41244;49.242;9.060;2024-03-23T05:20:55;16.30;;;10.93;;
55362;SDS011;41244;49.242;9.060;2024-03-23T05:23:22;17.30;;;11.50;;
55362;SDS011;41244;49.242;9.060;2024-03-23T05:25:49;15.27;;;11.50;;
55362;SDS011;41244;49.242;9.060;2024-03-23T05:28:16;15.70;;;11.00;;
55362;SDS011;41244;49.242;9.060;2024-03-23T05:30:49;14.23;;;10.85;;
55362;SDS011;41244;49.242;9.060;2024-03-23T05:33:19;14.00;;;10.75;;
55362;SDS011;41244;49.242;9.060;2024-03-23T05:35:46;12.50;;;9.95;;
55362;SDS011;41244;49.242;9.060;2024-03-23T05:38:15;16.23;;;11.95;;
55362;SDS011;41244;49.242;9.060;2024-03-23T05:40:40;13.48;;;10.48;;
55362;SDS011;41244;49.242;9.060;2024-03-23T05:43:07;13.90;;;9.43;;
55362;SDS011;41244;49.242;9.060;2024-03-23T05:45:34;10.60;;;8.75;;
55362;SDS011;41244;49.242;9.060;2024-03-23T05:48:00;10.98;;;8.32;;
55362;SDS011;41244;49.242;9.060;2024-03-23T05:50:26;8.82;;;7.93;;
55362;SDS011;41244;49.242;9.060;2024-03-23T05:52:51;11.15;;;7.50;;
55362;SDS011;41244;49.242;9.060;2024-03-23T05:55:18;10.55;;;7.68;;
55362;SDS011;41244;49.242;9.060;2024-03-23T05:57:43;10.70;;;7.35;;
55362;SDS011;41244;49.242;9.060;2024-03-23T06:00:10;9.88;;;7.05;;
55362;SDS011;41244;49.242;9.060;2024-03-23T06:02:41;7.97;;;6.28;;
55362;SDS011;41244;49.242;9.060;2024-03-23T06:05:09;7.60;;;6.18;;
55362;SDS011;41244;49.242;9.060;2024-03-23T06:07:36;6.53;;;4.93;;
55362;SDS011;41244;49.242;9.060;2024-03-23T06:10:03;7.68;;;6.28;;
55362;SDS011;41244;49.242;9.060;2024-03-23T06:12:30;7.50;;;6.05;;
55362;SDS011;41244;49.242;9.060;2024-03-23T06:14:57;9.48;;;5.85;;
55362;SDS011;41244;49.242;9.060;2024-03-23T06:17:23;7.55;;;5.43;;
55362;SDS011;41244;49.242;9.060;2024-03-23T06:19:49;7.65;;;5.60;;
55362;SDS011;41244;49.242;9.060;2024-03-23T06:22:15;7.57;;;5.35;;
55362;SDS011;41244;49.242;9.060;2024-03-23T06:24:41;6.85;;;5.30;;
55362;SDS011;41244;49.242;9.060;2024-03-23T06:27:07;5.50;;;4.75;;
55362;SDS011;41244;49.242;9.060;2024-03-23T06:29:32;7.00;;;4.15;;
55362;SDS011;41244;49.242;9.060;2024-03-23T06:31:58;5.47;;;4.97;;
55362;SDS011;41244;49.242;9.060;2024-03-23T06:34:24;4.25;;;3.75;;
55362;SDS011;41244;49.242;9.060;2024-03-23T06:36:50;7.50;;;4.60;;
55362;SDS011;41244;49.242;9.060;2024-03-23T06:39:16;4.63;;;4.10;;
55362;SDS011;41244;49.242;9.060;2024-03-23T06:41:51;4.68;;;3.75;;
55362;SDS011;41244;49.242;9.060;2024-03-23T06:44:18;6.45;;;3.85;;
55362;SDS011;41244;49.242;9.060;2024-03-23T06:46:45;4.90;;;3.85;;
55362;SDS011;41244;49.242;9.060;2024-03-23T06:49:11;5.72;;;4.10;;
55362;SDS011;41244;49.242;9.060;2024-03-23T06:51:37;5.70;;;3.88;;
55362;SDS011;41244;49.242;9.060;2024-03-23T06:54:04;5.38;;;4.25;;
55362;SDS011;41244;49.242;9.060;2024-03-23T06:56:30;4.45;;;4.05;;
55362;SDS011;41244;49.242;9.060;2024-03-23T06:58:56;5.50;;;4.82;;
55362;SDS011;41244;49.242;9.060;2024-03-23T07:01:22;5.07;;;4.40;;
55362;SDS011;41244;49.242;9.060;2024-03-23T07:03:49;5.85;;;4.50;;
55362;SDS011;41244;49.242;9.060;2024-03-23T07:06:15;4.80;;;4.30;;
55362;SDS011;41244;49.242;9.060;2024-03-23T07:08:44;4.65;;;4.25;;
55362;SDS011;41244;49.242;9.060;2024-03-23T07:11:09;4.63;;;4.13;;
55362;SDS011;41244;49.242;9.060;2024-03-23T07:13:35;5.18;;;3.58;;
55362;SDS011;41244;49.242;9.060;2024-03-23T07:16:01;3.40;;;3.10;;
55362;SDS011;41244;49.242;9.060;2024-03-23T07:18:27;3.42;;;3.13;;
55362;SDS011;41244;49.242;9.060;2024-03-23T07:20:54;3.50;;;3.20;;
55362;SDS011;41244;49.242;9.060;2024-03-23T07:23:24;3.22;;;2.80;;
55362;SDS011;41244;49.242;9.060;2024-03-23T07:25:57;2.70;;;2.50;;
55362;SDS011;41244;49.242;9.060;2024-03-23T07:28:27;2.70;;;2.50;;
55362;SDS011;41244;49.242;9.060;2024-03-23T07:31:09;2.53;;;2.30;;
55362;SDS011;41244;49.242;9.060;2024-03-23T07:33:37;2.97;;;2.67;;
55362;SDS011;41244;49.242;9.060;2024-03-23T07:36:07;2.70;;;2.50;;
55362;SDS011;41244;49.242;9.060;2024-03-23T07:38:33;2.50;;;2.30;;
55362;SDS011;41244;49.242;9.060;2024-03-23T07:41:07;2.40;;;2.10;;
55362;SDS011;41244;49.242;9.060;2024-03-23T07:43:35;2.20;;;2.00;;
55362;SDS011;41244;49.242;9.060;2024-03-23T07:46:04;2.08;;;1.88;;
55362;SDS011;41244;49.242;9.060;2024-03-23T07:48:30;2.47;;;2.10;;
55362;SDS011;41244;49.242;9.060;2024-03-23T07:51:00;3.78;;;2.30;;
55362;SDS011;41244;49.242;9.060;2024-03-23T07:56:07;3.03;;;2.30;;
55362;SDS011;41244;49.242;9.060;2024-03-23T07:58:35;1.90;;;1.80;;
55362;SDS011;41244;49.242;9.060;2024-03-23T08:01:11;1.85;;;1.75;;
55362;SDS011;41244;49.242;9.060;2024-03-23T08:03:39;1.80;;;1.70;;
55362;SDS011;41244;49.242;9.060;2024-03-23T08:06:25;1.52;;;1.42;;
55362;SDS011;41244;49.242;9.060;2024-03-23T08:08:51;2.33;;;1.83;;
55362;SDS011;41244;49.242;9.060;2024-03-23T08:13:54;2.13;;;1.60;;
55362;SDS011;41244;49.242;9.060;2024-03-23T08:16:20;3.65;;;1.90;;
55362;SDS011;41244;49.242;9.060;2024-03-23T08:18:46;2.30;;;2.10;;
55362;SDS011;41244;49.242;9.060;2024-03-23T08:21:12;2.22;;;1.95;;
55362;SDS011;41244;49.242;9.060;2024-03-23T08:23:38;2.10;;;1.98;;
55362;SDS011;41244;49.242;9.060;2024-03-23T08:26:06;1.90;;;1.80;;
55362;SDS011;41244;49.242;9.060;2024-03-23T08:28:36;2.38;;;1.98;;
55362;SDS011;41244;49.242;9.060;2024-03-23T08:31:09;2.40;;;2.20;;
55362;SDS011;41244;49.242;9.060;2024-03-23T08:33:36;3.13;;;2.80;;
55362;SDS011;41244;49.242;9.060;2024-03-23T08:36:05;4.35;;;2.30;;
55362;SDS011;41244;49.242;9.060;2024-03-23T08:38:32;4.97;;;2.60;;
55362;SDS011;41244;49.242;9.060;2024-03-23T08:41:02;5.13;;;2.50;;
55362;SDS011;41244;49.242;9.060;2024-03-23T08:43:30;2.95;;;2.45;;
55362;SDS011;41244;49.242;9.060;2024-03-23T08:46:04;18.23;;;12.50;;
55362;SDS011;41244;49.242;9.060;2024-03-23T08:48:34;6.25;;;4.10;;
55362;SDS011;41244;49.242;9.060;2024-03-23T08:51:05;6.20;;;3.45;;
55362;SDS011;41244;49.242;9.060;2024-03-23T08:53:33;6.45;;;4.00;;
55362;SDS011;41244;49.242;9.060;2024-03-23T08:56:00;8.63;;;3.92;;
55362;SDS011;41244;49.242;9.060;2024-03-23T08:58:27;5.78;;;3.80;;
55362;SDS011;41244;49.242;9.060;2024-03-23T09:00:55;7.28;;;3.10;;
55362;SDS011;41244;49.242;9.060;2024-03-23T09:03:28;9.60;;;4.00;;
55362;SDS011;41244;49.242;9.060;2024-03-23T09:05:54;9.68;;;3.38;;
55362;SDS011;41244;49.242;9.060;2024-03-23T09:08:20;7.07;;;3.00;;
55362;SDS011;41244;49.242;9.060;2024-03-23T09:10:47;6.30;;;3.53;;
55362;SDS011;41244;49.242;9.060;2024-03-23T09:13:13;4.65;;;3.05;;
55362;SDS011;41244;49.242;9.060;2024-03-23T09:15:48;8.68;;;4.20;;
55362;SDS011;41244;49.242;9.060;2024-03-23T09:18:15;9.98;;;4.03;;
55362;SDS011;41244;49.242;9.060;2024-03-23T09:20:41;7.18;;;3.75;;
55362;SDS011;41244;49.242;9.060;2024-03-23T09:23:07;6.10;;;3.40;;
55362;SDS011;41244;49.242;9.060;2024-03-23T09:25:36;7.25;;;3.63;;
55362;SDS011;41244;49.242;9.060;2024-03-23T09:28:04;7.72;;;4.55;;
55362;SDS011;41244;49.242;9.060;2024-03-23T09:30:37;8.27;;;3.50;;
55362;SDS011;41244;49.242;9.060;2024-03-23T09:33:11;7.60;;;3.97;;
55362;SDS011;41244;49.242;9.060;2024-03-23T09:35:38;5.18;;;3.42;;
55362;SDS011;41244;49.242;9.060;2024-03-23T09:38:04;7.32;;;3.42;;
55362;SDS011;41244;49.242;9.060;2024-03-23T09:40:30;5.00;;;3.40;;
55362;SDS011;41244;49.242;9.060;2024-03-23T09:42:56;7.68;;;3.35;;
55362;SDS011;41244;49.242;9.060;2024-03-23T09:45:26;6.57;;;3.40;;
55362;SDS011;41244;49.242;9.060;2024-03-23T09:47:56;7.38;;;3.53;;
55362;SDS011;41244;49.242;9.060;2024-03-23T09:50:22;8.65;;;3.42;;
55362;SDS011;41244;49.242;9.060;2024-03-23T09:52:49;6.20;;;3.40;;
55362;SDS011;41244;49.242;9.060;2024-03-23T09:55:15;7.85;;;3.50;;
55362;SDS011;41244;49.242;9.060;2024-03-23T09:57:41;4.93;;;3.50;;
55362;SDS011;41244;49.242;9.060;2024-03-23T10:00:07;6.22;;;3.13;;
55362;SDS011;41244;49.242;9.060;2024-03-23T10:02:34;9.52;;;4.18;;
55362;SDS011;41244;49.242;9.060;2024-03-23T10:05:02;7.18;;;3.13;;
55362;SDS011;41244;49.242;9.060;2024-03-23T10:07:29;10.25;;;3.50;;
55362;SDS011;41244;49.242;9.060;2024-03-23T10:09:55;10.07;;;3.97;;
55362;SDS011;41244;49.242;9.060;2024-03-23T10:12:21;7.68;;;3.80;;
55362;SDS011;41244;49.242;9.060;2024-03-23T10:14:48;9.13;;;3.90;;
55362;SDS011;41244;49.242;9.060;2024-03-23T10:17:15;6.40;;;4.05;;
55362;SDS011;41244;49.242;9.060;2024-03-23T10:19:45;7.75;;;3.75;;
55362;SDS011;41244;49.242;9.060;2024-03-23T10:22:19;9.60;;;4.68;;
55362;SDS011;41244;49.242;9.060;2024-03-23T10:24:51;9.80;;;4.35;;
55362;SDS011;41244;49.242;9.060;2024-03-23T10:27:19;9.98;;;3.63;;
55362;SDS011;41244;49.242;9.060;2024-03-23T10:29:46;5.22;;;3.58;;
55362;SDS011;41244;49.242;9.060;2024-03-23T10:32:14;7.95;;;4.20;;
55362;SDS011;41244;49.242;9.060;2024-03-23T10:34:41;7.65;;;3.92;;
55362;SDS011;41244;49.242;9.060;2024-03-23T10:37:07;8.02;;;3.92;;
55362;SDS011;41244;49.242;9.060;2024-03-23T10:39:34;9.48;;;4.25;;
55362;SDS011;41244;49.242;9.060;2024-03-23T10:42:08;6.15;;;3.67;;
55362;SDS011;41244;49.242;9.060;2024-03-23T10:44:36;8.77;;;4.22;;
55362;SDS011;41244;49.242;9.060;2024-03-23T10:47:03;7.07;;;3.63;;
55362;SDS011;41244;49.242;9.060;2024-03-23T10:49:33;13.15;;;4.20;;
55362;SDS011;41244;49.242;9.060;2024-03-23T10:52:01;8.23;;;3.60;;
55362;SDS011;41244;49.242;9.060;2024-03-23T10:54:29;9.85;;;4.05;;
55362;SDS011;41244;49.242;9.060;2024-03-23T10:57:06;5.95;;;3.95;;
55362;SDS011;41244;49.242;9.060;2024-03-23T10:59:36;9.73;;;4.13;;
55362;SDS011;41244;49.242;9.060;2024-03-23T11:02:03;12.75;;;4.65;;
55362;SDS011;41244;49.242;9.060;2024-03-23T11:09:52;8.82;;;3.83;;
55362;SDS011;41244;49.242;9.060;2024-03-23T11:14:57;11.38;;;3.97;;
55362;SDS011;41244;49.242;9.060;2024-03-23T11:17:31;10.73;;;5.65;;
55362;SDS011;41244;49.242;9.060;2024-03-23T11:20:00;11.52;;;5.60;;
55362;SDS011;41244;49.242;9.060;2024-03-23T11:27:49;9.40;;;4.50;;
55362;SDS011;41244;49.242;9.060;2024-03-23T11:30:26;6.65;;;4.10;;
55362;SDS011;41244;49.242;9.060;2024-03-23T11:32:54;11.20;;;4.75;;
55362;SDS011;41244;49.242;9.060;2024-03-23T11:35:25;17.50;;;4.40;;
55362;SDS011;41244;49.242;9.060;2024-03-23T11:38:02;8.10;;;3.90;;
55362;SDS011;41244;49.242;9.060;2024-03-23T11:43:18;9.70;;;4.00;;
55362;SDS011;41244;49.242;9.060;2024-03-23T11:48:18;7.22;;;4.00;;
55362;SDS011;41244;49.242;9.060;2024-03-23T11:50:47;9.60;;;4.18;;
55362;SDS011;41244;49.242;9.060;2024-03-23T11:53:22;7.95;;;3.95;;
55362;SDS011;41244;49.242;9.060;2024-03-23T11:58:23;7.40;;;3.55;;
55362;SDS011;41244;49.242;9.060;2024-03-23T12:01:00;9.80;;;3.97;;
55362;SDS011;41244;49.242;9.060;2024-03-23T12:03:28;9.30;;;4.40;;
55362;SDS011;41244;49.242;9.060;2024-03-23T12:05:55;8.75;;;3.65;;
55362;SDS011;41244;49.242;9.060;2024-03-23T12:08:28;6.45;;;3.40;;
55362;SDS011;41244;49.242;9.060;2024-03-23T12:11:05;9.63;;;3.67;;
55362;SDS011;41244;49.242;9.060;2024-03-23T12:13:32;6.40;;;3.42;;
55362;SDS011;41244;49.242;9.060;2024-03-23T12:16:11;7.70;;;3.28;;
55362;SDS011;41244;49.242;9.060;2024-03-23T12:18:42;8.10;;;3.70;;
55362;SDS011;41244;49.242;9.060;2024-03-23T12:21:09;9.95;;;4.20;;
55362;SDS011;41244;49.242;9.060;2024-03-23T12:23:35;8.00;;;3.85;;
55362;SDS011;41244;49.242;9.060;2024-03-23T12:26:04;8.00;;;3.13;;
55362;SDS011;41244;49.242;9.060;2024-03-23T12:28:30;6.32;;;3.15;;
55362;SDS011;41244;49.242;9.060;2024-03-23T12:30:55;8.10;;;3.58;;
55362;SDS011;41244;49.242;9.060;2024-03-23T12:33:21;9.98;;;3.30;;
55362;SDS011;41244;49.242;9.060;2024-03-23T12:35:47;7.40;;;2.75;;
55362;SDS011;41244;49.242;9.060;2024-03-23T12:38:14;9.07;;;3.10;;
55362;SDS011;41244;49.242;9.060;2024-03-23T12:40:40;8.18;;;3.00;;
55362;SDS011;41244;49.242;9.060;2024-03-23T12:43:06;8.57;;;3.08;;
55362;SDS011;41244;49.242;9.060;2024-03-23T12:45:32;10.40;;;4.00;;
55362;SDS011;41244;49.242;9.060;2024-03-23T12:47:58;7.07;;;3.45;;
55362;SDS011;41244;49.242;9.060;2024-03-23T12:50:24;7.00;;;2.78;;
55362;SDS011;41244;49.242;9.060;2024-03-23T12:52:50;6.78;;;3.00;;
55362;SDS011;41244;49.242;9.060;2024-03-23T12:55:16;6.60;;;3.63;;
55362;SDS011;41244;49.242;9.060;2024-03-23T12:57:43;9.35;;;4.80;;
55362;SDS011;41244;49.242;9.060;2024-03-23T13:00:09;6.28;;;3.50;;
55362;SDS011;41244;49.242;9.060;2024-03-23T13:02:36;6.53;;;3.28;;
55362;SDS011;41244;49.242;9.060;2024-03-23T13:05:04;6.22;;;3.30;;
55362;SDS011;41244;49.242;9.060;2024-03-23T13:07:30;10.00;;;3.65;;
55362;SDS011;41244;49.242;9.060;2024-03-23T13:09:56;5.47;;;3.15;;
55362;SDS011;41244;49.242;9.060;2024-03-23T13:12:22;6.20;;;3.25;;
55362;SDS011;41244;49.242;9.060;2024-03-23T13:14:48;7.80;;;3.72;;
55362;SDS011;41244;49.242;9.060;2024-03-23T13:17:14;8.77;;;3.80;;
55362;SDS011;41244;49.242;9.060;2024-03-23T13:19:40;6.65;;;3.47;;
55362;SDS011;41244;49.242;9.060;2024-03-23T13:22:06;7.07;;;3.55;;
55362;SDS011;41244;49.242;9.060;2024-03-23T13:24:33;10.38;;;3.92;;
55362;SDS011;41244;49.242;9.060;2024-03-23T13:26:59;5.43;;;3.35;;
55362;SDS011;41244;49.242;9.060;2024-03-23T13:29:24;5.45;;;3.22;;
55362;SDS011;41244;49.242;9.060;2024-03-23T13:31:51;6.72;;;3.50;;
55362;SDS011;41244;49.242;9.060;2024-03-23T13:34:17;9.07;;;3.35;;
55362;SDS011;41244;49.242;9.060;2024-03-23T13:36:44;7.85;;;3.78;;
55362;SDS011;41244;49.242;9.060;2024-03-23T13:39:11;7.20;;;3.00;;
55362;SDS011;41244;49.242;9.060;2024-03-23T13:41:40;5.75;;;3.60;;
55362;SDS011;41244;49.242;9.060;2024-03-23T13:44:09;7.85;;;3.70;;
55362;SDS011;41244;49.242;9.060;2024-03-23T13:46:39;7.28;;;3.53;;
55362;SDS011;41244;49.242;9.060;2024-03-23T13:49:25;7.13;;;3.28;;
55362;SDS011;41244;49.242;9.060;2024-03-23T13:51:56;6.40;;;3.85;;
55362;SDS011;41244;49.242;9.060;2024-03-23T13:54:23;7.45;;;3.35;;
55362;SDS011;41244;49.242;9.060;2024-03-23T13:56:52;3.63;;;2.20;;
55362;SDS011;41244;49.242;9.060;2024-03-23T13:59:22;5.72;;;2.97;;
55362;SDS011;41244;49.242;9.060;2024-03-23T14:01:49;5.78;;;3.08;;
55362;SDS011;41244;49.242;9.060;2024-03-23T14:04:16;6.10;;;2.92;;
55362;SDS011;41244;49.242;9.060;2024-03-23T14:06:42;6.63;;;2.50;;
55362;SDS011;41244;49.242;9.060;2024-03-23T14:09:11;3.85;;;2.33;;
55362;SDS011;41244;49.242;9.060;2024-03-23T14:11:37;3.47;;;2.42;;
55362;SDS011;41244;49.242;9.060;2024-03-23T14:14:03;4.15;;;2.33;;
55362;SDS011;41244;49.242;9.060;2024-03-23T14:16:30;3.97;;;2.40;;
55362;SDS011;41244;49.242;9.060;2024-03-23T14:18:56;5.05;;;2.25;;
55362;SDS011;41244;49.242;9.060;2024-03-23T14:21:22;4.05;;;2.38;;
55362;SDS011;41244;49.242;9.060;2024-03-23T14:23:48;4.70;;;2.40;;
55362;SDS011;41244;49.242;9.060;2024-03-23T14:26:15;6.95;;;5.28;;
55362;SDS011;41244;49.242;9.060;2024-03-23T14:28:41;4.07;;;2.10;;
55362;SDS011;41244;49.242;9.060;2024-03-23T14:31:07;3.45;;;1.92;;
55362;SDS011;41244;49.242;9.060;2024-03-23T14:33:36;3.60;;;2.20;;
55362;SDS011;41244;49.242;9.060;2024-03-23T14:36:03;4.63;;;2.13;;
55362;SDS011;41244;49.242;9.060;2024-03-23T14:38:29;4.07;;;2.28;;
55362;SDS011;41244;49.242;9.060;2024-03-23T14:40:58;7.55;;;3.30;;
55362;SDS011;41244;49.242;9.060;2024-03-23T14:43:25;4.40;;;2.28;;
55362;SDS011;41244;49.242;9.060;2024-03-23T14:48:35;9.10;;;5.10;;
55362;SDS011;41244;49.242;9.060;2024-03-23T14:51:01;7.10;;;4.30;;
55362;SDS011;41244;49.242;9.060;2024-03-23T14:53:32;5.65;;;3.72;;
55362;SDS011;41244;49.242;9.060;2024-03-23T14:55:59;5.93;;;4.85;;
55362;SDS011;41244;49.242;9.060;2024-03-23T14:58:28;6.97;;;3.63;;
55362;SDS011;41244;49.242;9.060;2024-03-23T15:01:04;7.28;;;3.22;;
55362;SDS011;41244;49.242;9.060;2024-03-23T15:03:35;3.70;;;2.67;;
55362;SDS011;41244;49.242;9.060;2024-03-23T15:06:04;3.08;;;2.38;;
55362;SDS011;41244;49.242;9.060;2024-03-23T15:08:31;4.28;;;2.25;;
55362;SDS011;41244;49.242;9.060;2024-03-23T15:11:00;4.20;;;2.05;;
55362;SDS011;41244;49.242;9.060;2024-03-23T15:13:36;2.83;;;1.73;;
55362;SDS011;41244;49.242;9.060;2024-03-23T15:16:02;6.72;;;2.30;;
55362;SDS011;41244;49.242;9.060;2024-03-23T15:18:30;3.88;;;2.00;;
55362;SDS011;41244;49.242;9.060;2024-03-23T15:21:01;3.78;;;2.33;;
55362;SDS011;41244;49.242;9.060;2024-03-23T15:23:30;4.70;;;2.22;;
55362;SDS011;41244;49.242;9.060;2024-03-23T15:25:59;4.88;;;2.00;;
55362;SDS011;41244;49.242;9.060;2024-03-23T15:28:27;4.63;;;2.00;;
55362;SDS011;41244;49.242;9.060;2024-03-23T15:31:14;4.47;;;2.03;;
55362;SDS011;41244;49.242;9.060;2024-03-23T15:33:39;3.42;;;1.88;;
55362;SDS011;41244;49.242;9.060;2024-03-23T15:36:05;1.95;;;1.83;;
55362;SDS011;41244;49.242;9.060;2024-03-23T15:38:32;5.68;;;2.10;;
55362;SDS011;41244;49.242;9.060;2024-03-23T15:40:58;3.78;;;2.00;;
55362;SDS011;41244;49.242;9.060;2024-03-23T15:43:24;4.70;;;2.20;;
55362;SDS011;41244;49.242;9.060;2024-03-23T15:45:57;4.95;;;2.72;;
55362;SDS011;41244;49.242;9.060;2024-03-23T15:51:01;3.78;;;2.05;;
55362;SDS011;41244;49.242;9.060;2024-03-23T15:53:29;5.07;;;2.10;;
55362;SDS011;41244;49.242;9.060;2024-03-23T15:56:02;7.32;;;2.10;;
55362;SDS011;41244;49.242;9.060;2024-03-23T15:58:30;5.45;;;2.65;;
55362;SDS011;41244;49.242;9.060;2024-03-23T16:00:58;3.78;;;2.30;;
55362;SDS011;41244;49.242;9.060;2024-03-23T16:03:33;4.35;;;2.20;;
55362;SDS011;41244;49.242;9.060;2024-03-23T16:06:00;3.83;;;2.08;;
55362;SDS011;41244;49.242;9.060;2024-03-23T16:08:28;3.30;;;2.25;;